Time,TemperatureF,DewpointF,PressureIn,WindDirection,WindDirectionDegrees,WindSpeedMPH,WindSpeedGustMPH,Humidity,HourlyPrecipIn,Conditions,Clouds,dailyrainin,SoftwareType,DateUTC
2013-02-28 00:02:00,44.0,36.0,29.64,WNW,286,0.0,3.0,74,0.00,,,0.00,,2013-02-28 05:02:00,
2013-02-28 00:11:00,44.0,36.0,29.64,WNW,286,0.0,3.0,74,0.00,,,0.00,,2013-02-28 05:11:00,
2013-02-28 00:22:00,46.0,37.0,29.63,WNW,286,0.0,2.0,71,0.00,,,0.00,,2013-02-28 05:22:00,
2013-02-28 00:32:00,45.0,37.0,29.63,WNW,286,0.0,2.0,72,0.00,,,0.00,,2013-02-28 05:32:00,
2013-02-28 00:42:00,45.0,37.0,29.63,WNW,286,0.0,2.0,72,0.00,,,0.00,,2013-02-28 05:42:00,
2013-02-28 00:52:00,44.0,36.0,29.62,WNW,286,0.0,0.0,73,0.00,,,0.00,,2013-02-28 05:52:00,
2013-02-28 01:01:00,44.0,37.0,29.63,WNW,286,0.0,0.0,75,0.00,,,0.00,,2013-02-28 06:01:00,
2013-02-28 01:11:00,44.0,37.0,29.63,WNW,286,0.0,0.0,75,0.00,,,0.00,,2013-02-28 06:11:00,
2013-02-28 01:22:00,44.0,37.0,29.65,WNW,291,1.0,7.0,75,0.00,,,0.00,,2013-02-28 06:22:00,
2013-02-28 01:32:00,45.0,36.0,29.64,WNW,287,1.0,5.0,71,0.00,,,0.00,,2013-02-28 06:32:00,
2013-02-28 01:42:00,45.0,36.0,29.64,WNW,287,1.0,5.0,71,0.00,,,0.00,,2013-02-28 06:42:00,
2013-02-28 01:52:00,45.0,36.0,29.64,WNW,288,0.0,3.0,70,0.00,,,0.00,,2013-02-28 06:52:00,
2013-02-28 02:01:00,45.0,37.0,29.64,WNW,288,0.0,2.0,72,0.00,,,0.00,,2013-02-28 07:01:00,
2013-02-28 02:11:00,45.0,37.0,29.64,WNW,288,0.0,2.0,72,0.00,,,0.00,,2013-02-28 07:11:00,
2013-02-28 02:22:00,45.0,37.0,29.64,WNW,288,0.0,2.0,72,0.00,,,0.00,,2013-02-28 07:22:00,
2013-02-28 02:32:00,45.0,37.0,29.64,WNW,288,0.0,2.0,73,0.00,,,0.00,,2013-02-28 07:32:00,
2013-02-28 02:42:00,45.0,37.0,29.64,WNW,288,0.0,2.0,73,0.00,,,0.00,,2013-02-28 07:42:00,
2013-02-28 02:52:00,44.0,36.0,29.63,WNW,288,0.0,1.0,74,0.00,,,0.00,,2013-02-28 07:52:00,
2013-02-28 03:01:00,43.0,36.0,29.63,WNW,288,0.0,1.0,76,0.00,,,0.00,,2013-02-28 08:01:00,
2013-02-28 03:11:00,43.0,36.0,29.63,WNW,288,0.0,1.0,76,0.00,,,0.00,,2013-02-28 08:11:00,
2013-02-28 03:22:00,42.0,36.0,29.62,WNW,288,0.0,1.0,78,0.00,,,0.00,,2013-02-28 08:22:00,
2013-02-28 03:32:00,41.0,35.0,29.62,WNW,288,0.0,0.0,80,0.00,,,0.00,,2013-02-28 08:32:00,
2013-02-28 03:42:00,41.0,35.0,29.62,WNW,288,0.0,0.0,80,0.00,,,0.00,,2013-02-28 08:42:00,
2013-02-28 03:53:00,40.0,35.0,29.62,WNW,288,0.0,0.0,81,0.00,,,0.00,,2013-02-28 08:53:00,
2013-02-28 04:03:00,39.0,34.0,29.63,WNW,288,0.0,1.0,83,0.00,,,0.00,,2013-02-28 09:03:00,
2013-02-28 04:12:00,39.0,34.0,29.63,WNW,288,0.0,1.0,83,0.00,,,0.00,,2013-02-28 09:12:00,
2013-02-28 04:22:00,38.0,33.0,29.63,WNW,288,0.0,1.0,83,0.00,,,0.00,,2013-02-28 09:22:00,
2013-02-28 04:32:00,38.0,34.0,29.63,WNW,288,0.0,2.0,84,0.00,,,0.00,,2013-02-28 09:32:00,
2013-02-28 04:42:00,38.0,34.0,29.63,WNW,288,0.0,2.0,84,0.00,,,0.00,,2013-02-28 09:42:00,
2013-02-28 04:52:00,38.0,34.0,29.63,WNW,288,0.0,1.0,85,0.00,,,0.00,,2013-02-28 09:52:00,
2013-02-28 05:02:00,39.0,34.0,29.64,WNW,288,0.0,3.0,82,0.00,,,0.00,,2013-02-28 10:02:00,
2013-02-28 05:12:00,39.0,34.0,29.64,WNW,288,0.0,3.0,82,0.00,,,0.00,,2013-02-28 10:12:00,
2013-02-28 05:22:00,40.0,33.0,29.64,WNW,288,0.0,2.0,77,0.00,,,0.00,,2013-02-28 10:22:00,
2013-02-28 05:32:00,40.0,33.0,29.65,WNW,288,0.0,2.0,75,0.00,,,0.00,,2013-02-28 10:32:00,
2013-02-28 05:42:00,40.0,33.0,29.65,WNW,288,0.0,2.0,75,0.00,,,0.00,,2013-02-28 10:42:00,
2013-02-28 05:52:00,40.0,32.0,29.65,WNW,288,0.0,1.0,74,0.00,,,0.00,,2013-02-28 10:52:00,
2013-02-28 06:02:00,40.0,32.0,29.65,WNW,288,0.0,1.0,74,0.00,,,0.00,,2013-02-28 11:02:00,
2013-02-28 06:11:00,40.0,32.0,29.65,WNW,288,0.0,1.0,74,0.00,,,0.00,,2013-02-28 11:11:00,
2013-02-28 06:22:00,39.0,32.0,29.66,WNW,288,0.0,2.0,75,0.00,,,0.00,,2013-02-28 11:22:00,
2013-02-28 06:32:00,39.0,32.0,29.67,WNW,288,0.0,2.0,76,0.00,,,0.00,,2013-02-28 11:32:00,
2013-02-28 06:42:00,39.0,32.0,29.67,WNW,288,0.0,2.0,76,0.00,,,0.00,,2013-02-28 11:42:00,
2013-02-28 06:52:00,38.0,31.0,29.67,WNW,288,0.0,0.0,77,0.00,,,0.00,,2013-02-28 11:52:00,
2013-02-28 07:02:00,37.0,31.0,29.67,WNW,288,0.0,0.0,78,0.00,,,0.00,,2013-02-28 12:02:00,
2013-02-28 07:12:00,37.0,31.0,29.67,WNW,288,0.0,0.0,78,0.00,,,0.00,,2013-02-28 12:12:00,
2013-02-28 07:22:00,37.0,31.0,29.68,WNW,288,0.0,1.0,78,0.00,,,0.00,,2013-02-28 12:22:00,
2013-02-28 07:32:00,37.0,31.0,29.68,WNW,288,0.0,0.0,78,0.00,,,0.00,,2013-02-28 12:32:00,
2013-02-28 07:42:00,37.0,31.0,29.68,WNW,288,0.0,0.0,78,0.00,,,0.00,,2013-02-28 12:42:00,
2013-02-28 07:52:00,37.0,31.0,29.67,WNW,288,0.0,0.0,79,0.00,,,0.00,,2013-02-28 12:52:00,
2013-02-28 08:02:00,37.0,31.0,29.68,WNW,288,0.0,0.0,80,0.00,,,0.00,,2013-02-28 13:02:00,
2013-02-28 08:12:00,37.0,31.0,29.68,WNW,288,0.0,0.0,80,0.00,,,0.00,,2013-02-28 13:12:00,
2013-02-28 08:22:00,38.0,33.0,29.68,WNW,288,0.0,0.0,81,0.00,,,0.00,,2013-02-28 13:22:00,
2013-02-28 08:32:00,39.0,33.0,29.68,WNW,288,0.0,0.0,80,0.00,,,0.00,,2013-02-28 13:32:00,
2013-02-28 08:42:00,39.0,33.0,29.68,WNW,288,0.0,0.0,80,0.00,,,0.00,,2013-02-28 13:42:00,
2013-02-28 08:52:00,40.0,35.0,29.70,WNW,288,0.0,0.0,81,0.00,,,0.00,,2013-02-28 13:52:00,
2013-02-28 09:02:00,40.0,35.0,29.70,WNW,288,0.0,0.0,81,0.00,,,0.00,,2013-02-28 14:02:00,
2013-02-28 09:11:00,41.0,33.0,29.69,WNW,288,0.0,0.0,73,0.00,,,0.00,,2013-02-28 14:11:00,
2013-02-28 09:22:00,41.0,33.0,29.69,WNW,288,0.0,0.0,73,0.00,,,0.00,,2013-02-28 14:22:00,
2013-02-28 09:32:00,41.0,32.0,29.69,WNW,288,0.0,1.0,71,0.00,,,0.00,,2013-02-28 14:32:00,
2013-02-28 09:42:00,41.0,32.0,29.69,WNW,288,0.0,1.0,71,0.00,,,0.00,,2013-02-28 14:42:00,
2013-02-28 09:52:00,41.0,32.0,29.69,WNW,288,0.0,1.0,71,0.00,,,0.00,,2013-02-28 14:52:00,
2013-02-28 10:02:00,43.0,33.0,29.70,WNW,297,0.0,1.0,67,0.00,,,0.00,,2013-02-28 15:02:00,
2013-02-28 10:11:00,43.0,33.0,29.70,WNW,297,0.0,1.0,67,0.00,,,0.00,,2013-02-28 15:11:00,
2013-02-28 10:22:00,43.0,33.0,29.70,WNW,297,0.0,1.0,67,0.00,,,0.00,,2013-02-28 15:22:00,
2013-02-28 10:32:00,45.0,31.0,29.69,West,267,0.0,3.0,58,0.00,,,0.00,,2013-02-28 15:32:00,
2013-02-28 10:42:00,45.0,31.0,29.69,West,267,0.0,3.0,58,0.00,,,0.00,,2013-02-28 15:42:00,
2013-02-28 10:52:00,45.0,29.0,29.69,West,269,0.0,6.0,53,0.00,,,0.00,,2013-02-28 15:52:00,
2013-02-28 11:02:00,45.0,28.0,29.70,WNW,282,2.0,8.0,51,0.00,,,0.00,,2013-02-28 16:02:00,
2013-02-28 11:12:00,45.0,28.0,29.70,WNW,282,2.0,8.0,51,0.00,,,0.00,,2013-02-28 16:12:00,
2013-02-28 11:22:00,45.0,28.0,29.69,SSW,198,1.0,5.0,51,0.00,,,0.00,,2013-02-28 16:22:00,
2013-02-28 11:32:00,47.0,29.0,29.69,South,170,1.0,5.0,50,0.00,,,0.00,,2013-02-28 16:32:00,
2013-02-28 11:42:00,47.0,29.0,29.69,South,170,1.0,5.0,50,0.00,,,0.00,,2013-02-28 16:42:00,
2013-02-28 11:53:00,46.0,25.0,29.69,West,267,2.0,5.0,43,0.00,,,0.00,,2013-02-28 16:53:00,
2013-02-28 12:02:00,47.0,25.0,29.68,SSW,198,1.0,4.0,42,0.00,,,0.00,,2013-02-28 17:02:00,
2013-02-28 12:12:00,47.0,26.0,29.68,WNW,291,2.0,6.0,43,0.00,,,0.00,,2013-02-28 17:12:00,
2013-02-28 12:22:00,47.0,26.0,29.68,WNW,291,2.0,6.0,43,0.00,,,0.00,,2013-02-28 17:22:00,
2013-02-28 12:32:00,47.0,25.0,29.68,NW,326,2.0,8.0,42,0.00,,,0.00,,2013-02-28 17:32:00,
2013-02-28 12:42:00,47.0,25.0,29.68,NW,326,2.0,8.0,42,0.00,,,0.00,,2013-02-28 17:42:00,
2013-02-28 12:53:00,47.0,25.0,29.67,NNW,348,2.0,6.0,42,0.00,,,0.00,,2013-02-28 17:53:00,
2013-02-28 13:02:00,45.0,25.0,29.67,West,276,2.0,9.0,45,0.00,,,0.00,,2013-02-28 18:02:00,
2013-02-28 13:12:00,45.0,25.0,29.67,West,276,2.0,9.0,45,0.00,,,0.00,,2013-02-28 18:12:00,
2013-02-28 13:22:00,46.0,27.0,29.67,NNW,334,2.0,4.0,47,0.00,,,0.00,,2013-02-28 18:22:00,
2013-02-28 13:32:00,46.0,25.0,29.67,WNW,290,0.0,5.0,44,0.00,,,0.00,,2013-02-28 18:32:00,
2013-02-28 13:42:00,46.0,25.0,29.67,WNW,290,0.0,5.0,44,0.00,,,0.00,,2013-02-28 18:42:00,
2013-02-28 13:52:00,46.0,24.0,29.67,West,273,2.0,5.0,42,0.00,,,0.00,,2013-02-28 18:52:00,
2013-02-28 14:02:00,46.0,25.0,29.66,WNW,291,0.0,4.0,43,0.00,,,0.00,,2013-02-28 19:02:00,
2013-02-28 14:12:00,46.0,25.0,29.66,WNW,291,0.0,4.0,43,0.00,,,0.00,,2013-02-28 19:12:00,
2013-02-28 14:22:00,47.0,26.0,29.66,WNW,284,0.0,6.0,44,0.00,,,0.00,,2013-02-28 19:22:00,
2013-02-28 14:32:00,46.0,25.0,29.66,WSW,254,0.0,5.0,44,0.00,,,0.00,,2013-02-28 19:32:00,
2013-02-28 14:42:00,46.0,25.0,29.66,WSW,254,0.0,5.0,44,0.00,,,0.00,,2013-02-28 19:42:00,
2013-02-28 14:52:00,48.0,25.0,29.66,West,279,1.0,7.0,41,0.00,,,0.00,,2013-02-28 19:52:00,
2013-02-28 15:01:00,47.0,23.0,29.66,West,279,3.0,9.0,38,0.00,,,0.00,,2013-02-28 20:01:00,
2013-02-28 15:12:00,47.0,23.0,29.66,West,279,3.0,9.0,38,0.00,,,0.00,,2013-02-28 20:12:00,
2013-02-28 15:22:00,47.0,25.0,29.67,WSW,250,1.0,6.0,41,0.00,,,0.00,,2013-02-28 20:22:00,
2013-02-28 15:32:00,47.0,25.0,29.67,WNW,293,2.0,5.0,41,0.00,,,0.00,,2013-02-28 20:32:00,
2013-02-28 15:42:00,47.0,25.0,29.67,WNW,293,2.0,5.0,41,0.00,,,0.00,,2013-02-28 20:42:00,
2013-02-28 15:52:00,47.0,25.0,29.67,WNW,284,3.0,6.0,41,0.00,,,0.00,,2013-02-28 20:52:00,
2013-02-28 16:02:00,46.0,24.0,29.68,West,275,0.0,5.0,42,0.00,,,0.00,,2013-02-28 21:02:00,
2013-02-28 16:11:00,46.0,24.0,29.68,West,275,0.0,5.0,42,0.00,,,0.00,,2013-02-28 21:11:00,
2013-02-28 16:22:00,46.0,25.0,29.68,SSW,213,0.0,2.0,43,0.00,,,0.00,,2013-02-28 21:22:00,
2013-02-28 16:32:00,46.0,24.0,29.68,WNW,291,1.0,5.0,42,0.00,,,0.00,,2013-02-28 21:32:00,
2013-02-28 16:42:00,46.0,24.0,29.68,WNW,291,1.0,5.0,42,0.00,,,0.00,,2013-02-28 21:42:00,
2013-02-28 16:52:00,46.0,25.0,29.68,WNW,282,1.0,4.0,43,0.00,,,0.00,,2013-02-28 21:52:00,
2013-02-28 17:01:00,46.0,24.0,29.68,WNW,284,1.0,4.0,42,0.00,,,0.00,,2013-02-28 22:01:00,
2013-02-28 17:11:00,46.0,24.0,29.68,WNW,284,1.0,4.0,42,0.00,,,0.00,,2013-02-28 22:11:00,
2013-02-28 17:22:00,46.0,24.0,29.69,SW,235,0.0,3.0,42,0.00,,,0.00,,2013-02-28 22:22:00,
2013-02-28 17:32:00,45.0,24.0,29.69,West,279,1.0,5.0,43,0.00,,,0.00,,2013-02-28 22:32:00,
2013-02-28 17:42:00,45.0,24.0,29.69,West,279,1.0,5.0,43,0.00,,,0.00,,2013-02-28 22:42:00,
2013-02-28 17:52:00,45.0,24.0,29.70,West,279,0.0,5.0,43,0.00,,,0.00,,2013-02-28 22:52:00,
2013-02-28 18:01:00,45.0,24.0,29.70,West,280,0.0,3.0,44,0.00,,,0.00,,2013-02-28 23:01:00,
2013-02-28 18:11:00,45.0,24.0,29.70,West,280,0.0,3.0,44,0.00,,,0.00,,2013-02-28 23:11:00,
2013-02-28 18:22:00,44.0,23.0,29.70,West,280,0.0,2.0,44,0.00,,,0.00,,2013-02-28 23:22:00,
2013-02-28 18:32:00,44.0,25.0,29.71,West,280,0.0,3.0,46,0.00,,,0.00,,2013-02-28 23:32:00,
2013-02-28 18:42:00,44.0,25.0,29.71,West,280,0.0,3.0,46,0.00,,,0.00,,2013-02-28 23:42:00,
2013-02-28 18:53:00,43.0,25.0,29.72,West,280,0.0,1.0,48,0.00,,,0.00,,2013-02-28 23:53:00,
2013-02-28 19:02:00,42.0,25.0,29.72,West,280,0.0,2.0,51,0.00,,,0.00,,2013-03-01 00:02:00,
2013-02-28 19:11:00,42.0,25.0,29.72,West,280,0.0,2.0,51,0.00,,,0.00,,2013-03-01 00:11:00,
2013-02-28 19:22:00,41.0,25.0,29.72,West,280,0.0,2.0,52,0.00,,,0.00,,2013-03-01 00:22:00,
2013-02-28 19:32:00,41.0,25.0,29.74,West,280,0.0,1.0,53,0.00,,,0.00,,2013-03-01 00:32:00,
2013-02-28 19:42:00,41.0,25.0,29.74,West,280,0.0,1.0,53,0.00,,,0.00,,2013-03-01 00:42:00,
2013-02-28 19:52:00,41.0,25.0,29.74,West,280,0.0,1.0,53,0.00,,,0.00,,2013-03-01 00:52:00,
2013-02-28 20:01:00,40.0,25.0,29.75,West,280,0.0,1.0,54,0.00,,,0.00,,2013-03-01 01:01:00,
2013-02-28 20:11:00,40.0,25.0,29.75,West,280,0.0,1.0,54,0.00,,,0.00,,2013-03-01 01:11:00,
2013-02-28 20:22:00,40.0,24.0,29.75,West,280,0.0,2.0,53,0.00,,,0.00,,2013-03-01 01:22:00,
2013-02-28 20:32:00,40.0,25.0,29.75,West,280,0.0,2.0,55,0.00,,,0.00,,2013-03-01 01:32:00,
2013-02-28 20:42:00,40.0,25.0,29.75,West,280,0.0,2.0,55,0.00,,,0.00,,2013-03-01 01:42:00,
2013-02-28 20:52:00,39.0,25.0,29.75,West,280,0.0,2.0,57,0.00,,,0.00,,2013-03-01 01:52:00,
2013-02-28 21:01:00,39.0,25.0,29.75,West,280,0.0,2.0,56,0.00,,,0.00,,2013-03-01 02:01:00,
2013-02-28 21:11:00,39.0,25.0,29.75,West,280,0.0,2.0,57,0.00,,,0.00,,2013-03-01 02:11:00,
2013-02-28 21:22:00,39.0,25.0,29.75,West,280,0.0,2.0,57,0.00,,,0.00,,2013-03-01 02:22:00,
2013-02-28 21:32:00,38.0,26.0,29.76,West,280,0.0,0.0,61,0.00,,,0.00,,2013-03-01 02:32:00,
2013-02-28 21:42:00,38.0,26.0,29.76,West,280,0.0,0.0,61,0.00,,,0.00,,2013-03-01 02:42:00,
2013-02-28 21:52:00,37.0,26.0,29.77,West,280,0.0,0.0,63,0.00,,,0.00,,2013-03-01 02:52:00,
2013-02-28 22:02:00,37.0,26.0,29.78,West,280,0.0,1.0,63,0.00,,,0.00,,2013-03-01 03:02:00,
2013-02-28 22:12:00,37.0,26.0,29.78,West,280,0.0,1.0,63,0.00,,,0.00,,2013-03-01 03:12:00,
2013-02-28 22:22:00,36.0,25.0,29.78,West,280,0.0,2.0,65,0.00,,,0.00,,2013-03-01 03:22:00,
2013-02-28 22:32:00,35.0,26.0,29.78,West,280,0.0,2.0,69,0.00,,,0.00,,2013-03-01 03:32:00,
2013-02-28 22:42:00,35.0,26.0,29.78,West,280,0.0,2.0,69,0.00,,,0.00,,2013-03-01 03:42:00,
2013-02-28 22:52:00,35.0,27.0,29.78,West,280,0.0,0.0,71,0.00,,,0.00,,2013-03-01 03:52:00,
2013-02-28 23:01:00,35.0,27.0,29.78,West,280,0.0,2.0,71,0.00,,,0.00,,2013-03-01 04:01:00,
2013-02-28 23:12:00,35.0,27.0,29.78,West,280,0.0,2.0,71,0.00,,,0.00,,2013-03-01 04:12:00,
2013-02-28 23:22:00,34.0,26.0,29.77,West,280,0.0,1.0,72,0.00,,,0.00,,2013-03-01 04:22:00,
2013-02-28 23:32:00,36.0,26.0,29.78,WNW,282,0.0,3.0,67,0.00,,,0.00,,2013-03-01 04:32:00,
2013-02-28 23:42:00,36.0,26.0,29.78,WNW,282,0.0,3.0,67,0.00,,,0.00,,2013-03-01 04:42:00,
2013-02-28 23:52:00,36.0,25.0,29.78,WNW,292,0.0,3.0,65,0.00,,,0.00,,2013-03-01 04:52:00,